createdAt,value
2023-05-09T00:00:16.805Z,99732.44
2023-05-09T00:05:21.820Z,99726.94
2023-05-09T00:10:23.812Z,99720.06
2023-05-09T00:15:26.086Z,99724.16
2023-05-09T00:20:28.653Z,99718.91
2023-05-09T00:25:30.570Z,99717.47
2023-05-09T00:30:32.315Z,99709.19
2023-05-09T00:35:35.040Z,99705.91
2023-05-09T00:40:36.835Z,99705.03
2023-05-09T00:45:38.948Z,99700.13
2023-05-09T00:50:40.885Z,99701.78
2023-05-09T00:55:42.637Z,99685.03
2023-05-09T01:00:44.835Z,99696.38
2023-05-09T01:05:58.712Z,99685.97
2023-05-09T01:11:13.070Z,99690.63
2023-05-09T01:16:26.749Z,99700.25
2023-05-09T01:21:32.336Z,99687.88
2023-05-09T01:26:48.272Z,99690.38
2023-05-09T01:31:51.962Z,99684.03
2023-05-09T01:36:58.113Z,99686.53
2023-05-09T01:42:04.624Z,99685.97
2023-05-09T01:47:08.833Z,99681.56
2023-05-09T01:52:15.002Z,99669.47
2023-05-09T01:57:19.024Z,99674.41
2023-05-09T02:02:21.533Z,99680.19
2023-05-09T02:07:25.193Z,99673.03
2023-05-09T02:12:30.083Z,99682.63
2023-05-09T02:17:32.268Z,99675.19
2023-05-09T02:22:34.270Z,99671.63
2023-05-09T02:27:40.204Z,99670.53
2023-05-09T02:32:46.017Z,99663.91
2023-05-09T02:37:49.022Z,99667.50
2023-05-09T02:42:50.733Z,99659.78
2023-05-09T02:47:52.581Z,99664.44
2023-05-09T02:52:54.473Z,99671.31
2023-05-09T02:58:09.312Z,99667.47
2023-05-09T03:03:17.912Z,99661.69
2023-05-09T03:08:20.437Z,99670.78
2023-05-09T03:13:22.312Z,99667.25
2023-05-09T03:18:24.430Z,99671.63
2023-05-09T03:23:27.749Z,99660.94
2023-05-09T03:28:29.588Z,99663.66
2023-05-09T03:33:35.448Z,99661.22
2023-05-09T03:38:37.577Z,99660.66
2023-05-09T03:43:40.004Z,99654.88
2023-05-09T03:48:41.852Z,99658.47
2023-05-09T03:53:47.229Z,99652.97
2023-05-09T03:58:52.800Z,99663.66
2023-05-09T04:03:57.711Z,99663.66
2023-05-09T04:09:00.988Z,99672.72
2023-05-09T04:14:07.024Z,99665.69
2023-05-09T04:19:11.394Z,99667.63
2023-05-09T04:24:13.575Z,99680.09
2023-05-09T04:29:21.183Z,99666.25
2023-05-09T04:34:29.665Z,99672.09
2023-05-09T04:39:35.978Z,99665.63
2023-05-09T04:44:49.620Z,99669.19
2023-05-09T04:49:52.949Z,99670.38
2023-05-09T04:54:55.524Z,99672.59
2023-05-09T04:59:59.967Z,99674.56
2023-05-09T05:05:10.981Z,99673.16
2023-05-09T05:10:16.174Z,99669.72
2023-05-09T05:15:22.323Z,99679.81
2023-05-09T05:20:25.032Z,99667.03
2023-05-09T05:25:27.020Z,99662.13
2023-05-09T05:30:32.782Z,99674.22
2023-05-09T05:35:36.711Z,99661.28
2023-05-09T05:40:38.767Z,99658.72
2023-05-09T05:45:42.068Z,99651.22
2023-05-09T05:50:49.050Z,99658.81
2023-05-09T05:55:54.000Z,99653.56
2023-05-09T06:00:56.449Z,99659.19
2023-05-09T06:05:58.380Z,99657.66
2023-05-09T06:11:01.644Z,99644.00
2023-05-09T06:21:08.285Z,99637.44
2023-05-09T06:26:10.081Z,99632.88
2023-05-09T06:31:11.817Z,99624.72
2023-05-09T06:36:13.625Z,99615.94
2023-05-09T06:41:15.453Z,99609.25
2023-05-09T06:46:17.218Z,99610.81
2023-05-09T06:51:18.987Z,99609.44
2023-05-09T06:56:23.085Z,99612.59
2023-05-09T07:01:24.960Z,99612.69
2023-05-09T07:06:26.744Z,99606.09
2023-05-09T07:11:28.650Z,99606.19
2023-05-09T07:16:30.641Z,99602.00
2023-05-09T07:21:34.403Z,99592.31
2023-05-09T07:26:36.829Z,99599.72
2023-05-09T07:31:38.620Z,99582.00
2023-05-09T07:36:40.570Z,99577.06
2023-05-09T07:41:42.643Z,99575.78
2023-05-09T07:46:44.433Z,99573.00
2023-05-09T07:51:46.439Z,99564.47
2023-05-09T07:56:48.361Z,99567.94
2023-05-09T08:01:50.233Z,99562.34
2023-05-09T08:06:52.080Z,99561.28
2023-05-09T08:11:53.870Z,99560.75
2023-05-09T08:16:55.935Z,99555.09
2023-05-09T08:21:57.692Z,99547.84
2023-05-09T08:27:00.008Z,99552.19
2023-05-09T08:32:01.851Z,99543.91
2023-05-09T08:37:04.810Z,99535.00
2023-05-09T08:42:08.572Z,99531.56
2023-05-09T08:47:11.169Z,99537.53
2023-05-09T08:52:14.062Z,99518.31
2023-05-09T08:57:16.330Z,99525.44
2023-05-09T09:02:19.459Z,99523.81
2023-05-09T09:07:22.478Z,99514.84
2023-05-09T09:12:25.010Z,99510.56
2023-05-09T09:17:30.752Z,99506.81
2023-05-09T09:22:34.184Z,99520.41
2023-05-09T09:27:35.981Z,99513.19
2023-05-09T09:32:40.108Z,99506.22
2023-05-09T09:37:43.599Z,99508.13
2023-05-09T09:42:47.827Z,99499.50
2023-05-09T09:47:53.033Z,99497.72
2023-05-09T09:52:56.541Z,99502.66
2023-05-09T09:57:58.314Z,99492.63
2023-05-09T10:03:01.006Z,99476.91
2023-05-09T10:08:04.746Z,99481.06
2023-05-09T10:13:10.165Z,99479.97
2023-05-09T10:18:14.796Z,99476.59
2023-05-09T10:23:18.320Z,99471.97
2023-05-09T10:28:26.274Z,99478.47
2023-05-09T10:33:37.089Z,99474.00
2023-05-09T10:38:47.395Z,99474.00
2023-05-09T10:43:52.397Z,99464.25
2023-05-09T10:49:02.229Z,99450.72
2023-05-09T10:54:15.280Z,99461.03
2023-05-09T10:59:43.456Z,99450.75
2023-05-09T11:04:45.411Z,99452.66
2023-05-09T11:10:17.168Z,99448.91
2023-05-09T11:15:19.001Z,99434.06
2023-05-09T11:20:29.114Z,99426.00
2023-05-09T11:25:31.055Z,99420.28
2023-05-09T11:30:41.265Z,99435.13
2023-05-09T11:35:44.025Z,99421.94
2023-05-09T11:40:45.872Z,99418.03
2023-05-09T11:45:47.812Z,99412.13
2023-05-09T11:50:49.716Z,99409.34
2023-05-09T11:55:51.709Z,99404.09
2023-05-09T12:00:53.498Z,99406.41
2023-05-09T12:05:56.127Z,99398.84
2023-05-09T12:11:08.993Z,99398.16
2023-05-09T12:16:10.779Z,99381.88
2023-05-09T12:21:13.046Z,99378.63
2023-05-09T12:26:15.123Z,99366.56
2023-05-09T12:31:17.600Z,99370.84
2023-05-09T12:36:19.873Z,99356.84
2023-05-09T12:41:36.765Z,99350.56
2023-05-09T12:46:41.270Z,99341.66
2023-05-09T12:51:51.777Z,99334.16
2023-05-09T12:56:55.505Z,99323.94
2023-05-09T13:02:01.983Z,99321.84
2023-05-09T13:07:10.343Z,99308.88
2023-05-09T13:12:12.095Z,99311.25
2023-05-09T13:17:13.891Z,99304.13
2023-05-09T13:22:17.516Z,99291.59
2023-05-09T13:27:19.300Z,99289.31
2023-05-09T13:32:21.219Z,99286.13
2023-05-09T13:37:23.022Z,99293.06
2023-05-09T13:42:27.585Z,99278.75
2023-05-09T13:47:29.367Z,99273.56
2023-05-09T13:52:31.147Z,99265.75
2023-05-09T13:57:35.352Z,99262.22
2023-05-09T14:02:37.170Z,99258.63
2023-05-09T14:07:39.114Z,99256.78
2023-05-09T14:12:44.302Z,99242.31
2023-05-09T14:17:46.864Z,99236.50
2023-05-09T14:22:55.261Z,99246.69
2023-05-09T14:27:58.034Z,99235.56
2023-05-09T14:33:00.479Z,99235.97
2023-05-09T14:38:03.193Z,99222.69
2023-05-09T14:43:06.117Z,99235.75
2023-05-09T14:48:07.919Z,99218.78
2023-05-09T14:53:11.276Z,99220.88
2023-05-09T14:58:14.425Z,99228.84
2023-05-09T15:03:16.147Z,99203.59
2023-05-09T15:08:17.890Z,99209.03
2023-05-09T15:13:19.851Z,99201.41
2023-05-09T15:18:23.709Z,99189.47
2023-05-09T15:23:25.517Z,99187.53
2023-05-09T15:28:27.524Z,99183.22
2023-05-09T15:33:29.292Z,99179.13
2023-05-09T15:38:31.097Z,99175.34
2023-05-09T15:43:32.903Z,99178.66
2023-05-09T15:48:34.852Z,99173.34
2023-05-09T15:53:36.675Z,99175.22
2023-05-09T15:58:39.028Z,99161.97
2023-05-09T16:03:41.684Z,99161.13
2023-05-09T16:08:46.302Z,99159.22
2023-05-09T16:13:48.173Z,99155.28
2023-05-09T16:18:52.422Z,99148.22
2023-05-09T16:23:54.159Z,99143.97
2023-05-09T16:28:56.043Z,99141.72
2023-05-09T16:33:57.974Z,99127.66
2023-05-09T16:39:03.389Z,99120.38
2023-05-09T16:44:08.072Z,99123.84
2023-05-09T16:49:10.008Z,99120.19
2023-05-09T16:54:11.926Z,99111.78
2023-05-09T16:59:13.818Z,99108.69
2023-05-09T17:04:15.705Z,99098.16
2023-05-09T17:09:20.556Z,99097.72
2023-05-09T17:14:22.299Z,99099.84
2023-05-09T17:19:24.147Z,99094.94
2023-05-09T17:24:25.872Z,99093.41
2023-05-09T17:29:29.465Z,99101.19
2023-05-09T17:34:32.236Z,99085.94
2023-05-09T17:39:34.088Z,99098.63
2023-05-09T17:44:36.365Z,99089.59
2023-05-09T17:49:38.102Z,99086.53
2023-05-09T17:54:39.855Z,99081.13
2023-05-09T17:59:41.746Z,99084.94
2023-05-09T18:04:45.643Z,99085.34
2023-05-09T18:09:47.506Z,99078.09
2023-05-09T18:14:49.396Z,99072.56
2023-05-09T18:19:51.161Z,99079.03
2023-05-09T18:24:53.299Z,99083.53
2023-05-09T18:29:55.031Z,99079.06
2023-05-09T18:34:56.889Z,99084.59
2023-05-09T18:39:58.767Z,99086.00
2023-05-09T18:45:01.004Z,99090.72
2023-05-09T18:50:04.242Z,99098.66
2023-05-09T18:55:06.270Z,99097.75
2023-05-09T19:00:08.486Z,99100.41
2023-05-09T19:05:10.829Z,99096.97
2023-05-09T19:10:13.346Z,99096.19
2023-05-09T19:15:15.509Z,99104.88
2023-05-09T19:20:17.864Z,99103.44
2023-05-09T19:25:20.120Z,99105.41
2023-05-09T19:30:22.162Z,99097.44
2023-05-09T19:35:24.029Z,99100.88
2023-05-09T19:40:25.786Z,99101.56
2023-05-09T19:45:27.576Z,99099.59
2023-05-09T19:50:30.306Z,99092.28
2023-05-09T19:55:33.423Z,99087.03
2023-05-09T20:00:36.109Z,99089.47
2023-05-09T20:05:38.063Z,99076.75
2023-05-09T20:10:39.853Z,99072.81
2023-05-09T20:15:41.592Z,99071.00
2023-05-09T20:20:43.415Z,99067.72
2023-05-09T20:25:45.199Z,99055.63
2023-05-09T20:30:47.522Z,99055.13
2023-05-09T20:35:49.317Z,99062.44
2023-05-09T20:40:51.170Z,99050.97
2023-05-09T20:45:54.012Z,99040.81
2023-05-09T20:50:55.806Z,99045.81
2023-05-09T20:56:05.262Z,99036.13
2023-05-09T21:01:06.994Z,99025.94
2023-05-09T21:06:08.862Z,99017.41
2023-05-09T21:11:10.686Z,99017.34
2023-05-09T21:16:12.491Z,99025.09
2023-05-09T21:21:14.296Z,99020.47
2023-05-09T21:26:17.609Z,99024.41
2023-05-09T21:31:19.366Z,99017.16
2023-05-09T21:36:21.124Z,99016.09
2023-05-09T21:41:23.091Z,99009.69
2023-05-09T21:46:24.951Z,99002.97
2023-05-09T21:51:28.413Z,99005.31
2023-05-09T21:56:30.142Z,99012.19
2023-05-09T22:01:31.955Z,99013.13
2023-05-09T22:06:36.410Z,98998.50
2023-05-09T22:11:40.926Z,99003.84
2023-05-09T22:16:42.711Z,98992.91
2023-05-09T22:21:49.120Z,98990.53
2023-05-09T22:26:50.916Z,98997.94
2023-05-09T22:31:52.706Z,98996.09
2023-05-09T22:36:59.148Z,98993.94
2023-05-09T22:42:02.539Z,98993.13
2023-05-09T22:47:07.587Z,98988.31
2023-05-09T22:52:10.004Z,98983.19
2023-05-09T22:57:12.224Z,98971.75
2023-05-09T23:02:14.268Z,98970.53
2023-05-09T23:07:16.251Z,98959.91
2023-05-09T23:12:18.063Z,98961.44
2023-05-09T23:17:19.818Z,98956.53
2023-05-09T23:22:21.682Z,98953.34
2023-05-09T23:27:23.848Z,98939.88
2023-05-09T23:32:25.646Z,98939.97
2023-05-09T23:37:27.447Z,98932.19
2023-05-09T23:42:29.224Z,98926.38
2023-05-09T23:47:30.968Z,98915.88
2023-05-09T23:52:32.734Z,98907.69
2023-05-09T23:57:34.447Z,98908.59
